sensor_id;sensor_type;location;lat;lon;timestamp;P1;durP1;ratioP1;P2;durP2;ratioP2
11699;SDS011;5906;51.660;6.674;2022-07-12T00:01:32;3.70;;;3.40;;
11699;SDS011;5906;51.660;6.674;2022-07-12T00:03:59;5.13;;;4.47;;
11699;SDS011;5906;51.660;6.674;2022-07-12T00:06:26;7.13;;;3.67;;
11699;SDS011;5906;51.660;6.674;2022-07-12T00:08:53;4.67;;;3.17;;
11699;SDS011;5906;51.660;6.674;2022-07-12T00:11:20;3.20;;;2.90;;
11699;SDS011;5906;51.660;6.674;2022-07-12T00:13:47;6.73;;;3.20;;
11699;SDS011;5906;51.660;6.674;2022-07-12T00:16:13;4.50;;;3.23;;
11699;SDS011;5906;51.660;6.674;2022-07-12T00:18:40;3.60;;;3.30;;
11699;SDS011;5906;51.660;6.674;2022-07-12T00:21:08;5.87;;;3.40;;
11699;SDS011;5906;51.660;6.674;2022-07-12T00:23:34;3.20;;;2.90;;
11699;SDS011;5906;51.660;6.674;2022-07-12T00:26:01;4.93;;;2.90;;
11699;SDS011;5906;51.660;6.674;2022-07-12T00:28:31;3.33;;;3.07;;
11699;SDS011;5906;51.660;6.674;2022-07-12T00:30:58;4.40;;;2.90;;
11699;SDS011;5906;51.660;6.674;2022-07-12T00:33:26;8.30;;;3.47;;
11699;SDS011;5906;51.660;6.674;2022-07-12T00:35:53;3.40;;;3.10;;
11699;SDS011;5906;51.660;6.674;2022-07-12T00:38:26;5.60;;;2.90;;
11699;SDS011;5906;51.660;6.674;2022-07-12T00:40:53;5.37;;;3.53;;
11699;SDS011;5906;51.660;6.674;2022-07-12T00:43:20;3.93;;;3.00;;
11699;SDS011;5906;51.660;6.674;2022-07-12T00:45:47;3.43;;;3.13;;
11699;SDS011;5906;51.660;6.674;2022-07-12T00:48:14;3.50;;;2.87;;
11699;SDS011;5906;51.660;6.674;2022-07-12T00:50:44;3.63;;;3.30;;
11699;SDS011;5906;51.660;6.674;2022-07-12T00:53:12;4.90;;;3.40;;
11699;SDS011;5906;51.660;6.674;2022-07-12T00:55:40;3.43;;;3.13;;
11699;SDS011;5906;51.660;6.674;2022-07-12T00:58:07;4.20;;;2.73;;
11699;SDS011;5906;51.660;6.674;2022-07-12T01:00:34;3.40;;;2.73;;
11699;SDS011;5906;51.660;6.674;2022-07-12T01:03:01;7.17;;;3.00;;
11699;SDS011;5906;51.660;6.674;2022-07-12T01:05:29;3.13;;;2.83;;
11699;SDS011;5906;51.660;6.674;2022-07-12T01:07:57;3.03;;;2.80;;
11699;SDS011;5906;51.660;6.674;2022-07-12T01:10:24;2.63;;;2.43;;
11699;SDS011;5906;51.660;6.674;2022-07-12T01:12:51;3.20;;;2.90;;
11699;SDS011;5906;51.660;6.674;2022-07-12T01:15:19;3.53;;;2.83;;
11699;SDS011;5906;51.660;6.674;2022-07-12T01:17:46;2.70;;;2.50;;
11699;SDS011;5906;51.660;6.674;2022-07-12T01:20:19;4.80;;;3.00;;
11699;SDS011;5906;51.660;6.674;2022-07-12T01:22:50;3.00;;;2.70;;
11699;SDS011;5906;51.660;6.674;2022-07-12T01:25:22;2.87;;;2.60;;
11699;SDS011;5906;51.660;6.674;2022-07-12T01:27:49;2.77;;;2.57;;
11699;SDS011;5906;51.660;6.674;2022-07-12T01:30:15;4.03;;;3.10;;
11699;SDS011;5906;51.660;6.674;2022-07-12T01:32:42;3.53;;;2.50;;
11699;SDS011;5906;51.660;6.674;2022-07-12T01:35:10;3.27;;;2.73;;
11699;SDS011;5906;51.660;6.674;2022-07-12T01:37:38;4.67;;;2.53;;
11699;SDS011;5906;51.660;6.674;2022-07-12T01:40:11;3.67;;;2.87;;
11699;SDS011;5906;51.660;6.674;2022-07-12T01:42:40;3.00;;;2.70;;
11699;SDS011;5906;51.660;6.674;2022-07-12T01:45:10;2.80;;;2.60;;
11699;SDS011;5906;51.660;6.674;2022-07-12T01:47:38;3.30;;;3.00;;
11699;SDS011;5906;51.660;6.674;2022-07-12T01:50:09;2.73;;;2.40;;
11699;SDS011;5906;51.660;6.674;2022-07-12T01:52:38;3.10;;;2.80;;
11699;SDS011;5906;51.660;6.674;2022-07-12T01:55:06;4.30;;;2.70;;
11699;SDS011;5906;51.660;6.674;2022-07-12T01:57:37;3.10;;;2.67;;
11699;SDS011;5906;51.660;6.674;2022-07-12T02:00:07;3.07;;;2.77;;
11699;SDS011;5906;51.660;6.674;2022-07-12T02:02:34;5.00;;;2.43;;
11699;SDS011;5906;51.660;6.674;2022-07-12T02:05:02;4.90;;;2.80;;
11699;SDS011;5906;51.660;6.674;2022-07-12T02:07:30;2.43;;;2.23;;
11699;SDS011;5906;51.660;6.674;2022-07-12T02:09:57;3.53;;;2.90;;
11699;SDS011;5906;51.660;6.674;2022-07-12T02:12:25;2.90;;;2.70;;
11699;SDS011;5906;51.660;6.674;2022-07-12T02:14:51;3.37;;;2.70;;
11699;SDS011;5906;51.660;6.674;2022-07-12T02:17:18;3.03;;;2.73;;
11699;SDS011;5906;51.660;6.674;2022-07-12T02:19:45;3.50;;;3.20;;
11699;SDS011;5906;51.660;6.674;2022-07-12T02:22:12;3.17;;;2.90;;
11699;SDS011;5906;51.660;6.674;2022-07-12T02:24:38;3.30;;;3.00;;
11699;SDS011;5906;51.660;6.674;2022-07-12T02:27:05;4.27;;;2.90;;
11699;SDS011;5906;51.660;6.674;2022-07-12T02:29:32;5.27;;;3.27;;
11699;SDS011;5906;51.660;6.674;2022-07-12T02:31:59;3.57;;;3.00;;
11699;SDS011;5906;51.660;6.674;2022-07-12T02:34:26;3.03;;;2.73;;
11699;SDS011;5906;51.660;6.674;2022-07-12T02:36:53;5.10;;;2.90;;
11699;SDS011;5906;51.660;6.674;2022-07-12T02:39:20;4.33;;;3.30;;
11699;SDS011;5906;51.660;6.674;2022-07-12T02:41:47;4.57;;;3.10;;
11699;SDS011;5906;51.660;6.674;2022-07-12T02:44:13;4.27;;;3.30;;
11699;SDS011;5906;51.660;6.674;2022-07-12T02:46:40;4.63;;;3.60;;
11699;SDS011;5906;51.660;6.674;2022-07-12T02:49:07;5.03;;;3.20;;
11699;SDS011;5906;51.660;6.674;2022-07-12T02:51:34;3.40;;;3.10;;
11699;SDS011;5906;51.660;6.674;2022-07-12T02:54:01;4.13;;;3.30;;
11699;SDS011;5906;51.660;6.674;2022-07-12T02:56:27;4.07;;;3.67;;
11699;SDS011;5906;51.660;6.674;2022-07-12T02:58:54;3.63;;;3.33;;
11699;SDS011;5906;51.660;6.674;2022-07-12T03:01:21;3.43;;;3.10;;
11699;SDS011;5906;51.660;6.674;2022-07-12T03:03:47;3.60;;;3.30;;
11699;SDS011;5906;51.660;6.674;2022-07-12T03:06:14;9.33;;;3.40;;
11699;SDS011;5906;51.660;6.674;2022-07-12T03:08:42;3.57;;;3.00;;
11699;SDS011;5906;51.660;6.674;2022-07-12T03:11:08;6.67;;;3.20;;
11699;SDS011;5906;51.660;6.674;2022-07-12T03:13:35;4.07;;;3.50;;
11699;SDS011;5906;51.660;6.674;2022-07-12T03:16:02;4.90;;;3.87;;
11699;SDS011;5906;51.660;6.674;2022-07-12T03:18:29;5.87;;;3.37;;
11699;SDS011;5906;51.660;6.674;2022-07-12T03:20:57;4.50;;;3.33;;
11699;SDS011;5906;51.660;6.674;2022-07-12T03:23:23;3.37;;;3.07;;
11699;SDS011;5906;51.660;6.674;2022-07-12T03:25:50;5.17;;;3.43;;
11699;SDS011;5906;51.660;6.674;2022-07-12T03:28:17;3.70;;;3.40;;
11699;SDS011;5906;51.660;6.674;2022-07-12T03:30:43;3.73;;;3.43;;
11699;SDS011;5906;51.660;6.674;2022-07-12T03:33:11;3.40;;;2.97;;
11699;SDS011;5906;51.660;6.674;2022-07-12T03:35:37;5.43;;;4.07;;
11699;SDS011;5906;51.660;6.674;2022-07-12T03:38:04;4.20;;;3.80;;
11699;SDS011;5906;51.660;6.674;2022-07-12T03:40:31;6.07;;;3.70;;
11699;SDS011;5906;51.660;6.674;2022-07-12T03:43:00;4.10;;;3.70;;
11699;SDS011;5906;51.660;6.674;2022-07-12T03:45:27;4.10;;;3.70;;
11699;SDS011;5906;51.660;6.674;2022-07-12T03:47:54;3.90;;;3.60;;
11699;SDS011;5906;51.660;6.674;2022-07-12T03:50:20;4.10;;;3.60;;
11699;SDS011;5906;51.660;6.674;2022-07-12T03:52:47;3.83;;;3.43;;
11699;SDS011;5906;51.660;6.674;2022-07-12T03:55:15;9.10;;;4.03;;
11699;SDS011;5906;51.660;6.674;2022-07-12T03:57:42;7.90;;;4.33;;
11699;SDS011;5906;51.660;6.674;2022-07-12T04:00:09;6.73;;;4.00;;
11699;SDS011;5906;51.660;6.674;2022-07-12T04:02:40;8.10;;;3.87;;
11699;SDS011;5906;51.660;6.674;2022-07-12T04:05:08;10.20;;;3.80;;
11699;SDS011;5906;51.660;6.674;2022-07-12T04:07:36;5.97;;;3.50;;
11699;SDS011;5906;51.660;6.674;2022-07-12T04:10:03;7.83;;;3.20;;
11699;SDS011;5906;51.660;6.674;2022-07-12T04:12:31;6.83;;;4.40;;
11699;SDS011;5906;51.660;6.674;2022-07-12T04:14:57;10.53;;;3.93;;
11699;SDS011;5906;51.660;6.674;2022-07-12T04:17:24;5.37;;;4.03;;
11699;SDS011;5906;51.660;6.674;2022-07-12T04:19:51;5.50;;;4.10;;
11699;SDS011;5906;51.660;6.674;2022-07-12T04:22:18;12.90;;;4.53;;
11699;SDS011;5906;51.660;6.674;2022-07-12T04:24:44;5.63;;;3.70;;
11699;SDS011;5906;51.660;6.674;2022-07-12T04:27:11;5.23;;;3.47;;
11699;SDS011;5906;51.660;6.674;2022-07-12T04:29:38;6.50;;;3.67;;
11699;SDS011;5906;51.660;6.674;2022-07-12T04:32:05;4.20;;;3.70;;
11699;SDS011;5906;51.660;6.674;2022-07-12T04:34:32;7.03;;;4.07;;
11699;SDS011;5906;51.660;6.674;2022-07-12T04:36:59;7.33;;;3.97;;
11699;SDS011;5906;51.660;6.674;2022-07-12T04:39:26;7.97;;;4.90;;
11699;SDS011;5906;51.660;6.674;2022-07-12T04:41:52;17.00;;;5.50;;
11699;SDS011;5906;51.660;6.674;2022-07-12T04:44:19;13.87;;;4.60;;
11699;SDS011;5906;51.660;6.674;2022-07-12T04:46:46;19.93;;;5.53;;
11699;SDS011;5906;51.660;6.674;2022-07-12T04:49:13;13.53;;;5.10;;
11699;SDS011;5906;51.660;6.674;2022-07-12T04:51:39;5.73;;;4.07;;
11699;SDS011;5906;51.660;6.674;2022-07-12T04:54:06;6.20;;;4.53;;
11699;SDS011;5906;51.660;6.674;2022-07-12T04:56:34;10.33;;;4.47;;
11699;SDS011;5906;51.660;6.674;2022-07-12T04:59:01;6.63;;;4.20;;
11699;SDS011;5906;51.660;6.674;2022-07-12T05:01:28;4.57;;;3.60;;
11699;SDS011;5906;51.660;6.674;2022-07-12T05:03:55;6.53;;;3.53;;
11699;SDS011;5906;51.660;6.674;2022-07-12T05:06:22;10.33;;;3.17;;
11699;SDS011;5906;51.660;6.674;2022-07-12T05:08:49;5.57;;;3.27;;
11699;SDS011;5906;51.660;6.674;2022-07-12T05:11:16;5.20;;;3.00;;
11699;SDS011;5906;51.660;6.674;2022-07-12T05:13:43;3.10;;;2.80;;
11699;SDS011;5906;51.660;6.674;2022-07-12T05:16:10;4.73;;;3.07;;
11699;SDS011;5906;51.660;6.674;2022-07-12T05:18:37;6.00;;;3.70;;
11699;SDS011;5906;51.660;6.674;2022-07-12T05:21:04;7.83;;;3.53;;
11699;SDS011;5906;51.660;6.674;2022-07-12T05:23:31;12.03;;;4.23;;
11699;SDS011;5906;51.660;6.674;2022-07-12T05:25:57;4.53;;;3.93;;
11699;SDS011;5906;51.660;6.674;2022-07-12T05:28:24;5.27;;;4.77;;
11699;SDS011;5906;51.660;6.674;2022-07-12T05:30:51;5.93;;;4.37;;
11699;SDS011;5906;51.660;6.674;2022-07-12T05:33:18;5.40;;;4.10;;
11699;SDS011;5906;51.660;6.674;2022-07-12T05:35:45;4.60;;;4.17;;
11699;SDS011;5906;51.660;6.674;2022-07-12T05:38:11;4.73;;;4.03;;
11699;SDS011;5906;51.660;6.674;2022-07-12T05:40:38;4.90;;;4.40;;
11699;SDS011;5906;51.660;6.674;2022-07-12T05:43:05;5.30;;;4.80;;
11699;SDS011;5906;51.660;6.674;2022-07-12T05:45:31;5.73;;;4.37;;
11699;SDS011;5906;51.660;6.674;2022-07-12T05:47:58;8.00;;;4.80;;
11699;SDS011;5906;51.660;6.674;2022-07-12T05:50:25;5.20;;;4.80;;
11699;SDS011;5906;51.660;6.674;2022-07-12T05:52:52;5.33;;;4.87;;
11699;SDS011;5906;51.660;6.674;2022-07-12T05:55:37;5.03;;;4.10;;
11699;SDS011;5906;51.660;6.674;2022-07-12T05:58:04;4.73;;;4.33;;
11699;SDS011;5906;51.660;6.674;2022-07-12T06:00:31;4.10;;;3.80;;
11699;SDS011;5906;51.660;6.674;2022-07-12T06:02:58;8.77;;;5.30;;
11699;SDS011;5906;51.660;6.674;2022-07-12T06:05:26;5.07;;;4.67;;
11699;SDS011;5906;51.660;6.674;2022-07-12T06:07:53;8.03;;;4.97;;
11699;SDS011;5906;51.660;6.674;2022-07-12T06:10:19;6.80;;;5.63;;
11699;SDS011;5906;51.660;6.674;2022-07-12T06:12:46;14.53;;;6.37;;
11699;SDS011;5906;51.660;6.674;2022-07-12T06:15:13;7.17;;;6.30;;
11699;SDS011;5906;51.660;6.674;2022-07-12T06:17:40;10.27;;;6.53;;
11699;SDS011;5906;51.660;6.674;2022-07-12T06:20:07;7.47;;;6.50;;
11699;SDS011;5906;51.660;6.674;2022-07-12T06:22:34;14.13;;;6.23;;
11699;SDS011;5906;51.660;6.674;2022-07-12T06:25:01;10.70;;;6.73;;
11699;SDS011;5906;51.660;6.674;2022-07-12T06:27:48;16.27;;;7.20;;
11699;SDS011;5906;51.660;6.674;2022-07-12T06:30:16;9.03;;;7.47;;
11699;SDS011;5906;51.660;6.674;2022-07-12T06:32:48;9.60;;;6.40;;
11699;SDS011;5906;51.660;6.674;2022-07-12T06:35:15;8.60;;;6.10;;
11699;SDS011;5906;51.660;6.674;2022-07-12T06:37:42;11.30;;;6.37;;
11699;SDS011;5906;51.660;6.674;2022-07-12T06:40:09;14.50;;;9.33;;
11699;SDS011;5906;51.660;6.674;2022-07-12T06:42:36;12.67;;;8.27;;
11699;SDS011;5906;51.660;6.674;2022-07-12T06:45:03;14.93;;;7.37;;
11699;SDS011;5906;51.660;6.674;2022-07-12T06:47:31;24.87;;;7.17;;
11699;SDS011;5906;51.660;6.674;2022-07-12T06:49:57;16.00;;;7.10;;
11699;SDS011;5906;51.660;6.674;2022-07-12T06:52:24;10.97;;;6.70;;
11699;SDS011;5906;51.660;6.674;2022-07-12T06:54:56;10.80;;;5.93;;
11699;SDS011;5906;51.660;6.674;2022-07-12T06:57:23;10.30;;;6.17;;
11699;SDS011;5906;51.660;6.674;2022-07-12T06:59:53;15.73;;;7.43;;
11699;SDS011;5906;51.660;6.674;2022-07-12T07:02:20;12.43;;;6.77;;
11699;SDS011;5906;51.660;6.674;2022-07-12T07:04:48;11.60;;;6.47;;
11699;SDS011;5906;51.660;6.674;2022-07-12T07:07:15;13.23;;;6.63;;
11699;SDS011;5906;51.660;6.674;2022-07-12T07:09:41;11.37;;;6.47;;
11699;SDS011;5906;51.660;6.674;2022-07-12T07:12:09;10.93;;;5.97;;
11699;SDS011;5906;51.660;6.674;2022-07-12T07:14:36;11.10;;;6.10;;
11699;SDS011;5906;51.660;6.674;2022-07-12T07:17:03;16.70;;;6.43;;
11699;SDS011;5906;51.660;6.674;2022-07-12T07:19:30;12.33;;;5.50;;
11699;SDS011;5906;51.660;6.674;2022-07-12T07:21:57;7.53;;;5.80;;
11699;SDS011;5906;51.660;6.674;2022-07-12T07:24:25;18.10;;;6.33;;
11699;SDS011;5906;51.660;6.674;2022-07-12T07:26:52;14.93;;;6.10;;
11699;SDS011;5906;51.660;6.674;2022-07-12T07:29:23;10.90;;;6.00;;
11699;SDS011;5906;51.660;6.674;2022-07-12T07:32:09;9.77;;;6.33;;
11699;SDS011;5906;51.660;6.674;2022-07-12T07:34:36;9.37;;;7.03;;
11699;SDS011;5906;51.660;6.674;2022-07-12T07:37:03;7.00;;;5.10;;
11699;SDS011;5906;51.660;6.674;2022-07-12T07:39:30;7.80;;;5.30;;
11699;SDS011;5906;51.660;6.674;2022-07-12T07:41:57;13.60;;;5.47;;
11699;SDS011;5906;51.660;6.674;2022-07-12T07:44:24;8.90;;;4.97;;
11699;SDS011;5906;51.660;6.674;2022-07-12T07:46:58;7.40;;;5.10;;
11699;SDS011;5906;51.660;6.674;2022-07-12T07:49:25;10.00;;;4.97;;
11699;SDS011;5906;51.660;6.674;2022-07-12T07:51:52;8.40;;;4.50;;
11699;SDS011;5906;51.660;6.674;2022-07-12T07:54:19;5.17;;;4.07;;
11699;SDS011;5906;51.660;6.674;2022-07-12T07:56:46;6.97;;;3.23;;
11699;SDS011;5906;51.660;6.674;2022-07-12T07:59:12;3.50;;;3.17;;
11699;SDS011;5906;51.660;6.674;2022-07-12T08:01:39;5.57;;;4.13;;
11699;SDS011;5906;51.660;6.674;2022-07-12T08:04:15;7.13;;;3.43;;
11699;SDS011;5906;51.660;6.674;2022-07-12T08:06:42;5.40;;;3.50;;
11699;SDS011;5906;51.660;6.674;2022-07-12T08:09:09;13.93;;;4.40;;
11699;SDS011;5906;51.660;6.674;2022-07-12T08:11:39;3.87;;;3.47;;
11699;SDS011;5906;51.660;6.674;2022-07-12T08:14:06;4.17;;;2.93;;
11699;SDS011;5906;51.660;6.674;2022-07-12T08:16:34;5.23;;;3.90;;
11699;SDS011;5906;51.660;6.674;2022-07-12T08:19:02;8.93;;;4.10;;
11699;SDS011;5906;51.660;6.674;2022-07-12T08:21:29;4.23;;;3.20;;
11699;SDS011;5906;51.660;6.674;2022-07-12T08:23:56;5.03;;;3.50;;
11699;SDS011;5906;51.660;6.674;2022-07-12T08:26:23;6.50;;;3.53;;
11699;SDS011;5906;51.660;6.674;2022-07-12T08:28:50;5.53;;;3.40;;
11699;SDS011;5906;51.660;6.674;2022-07-12T08:31:17;6.10;;;3.73;;
11699;SDS011;5906;51.660;6.674;2022-07-12T08:33:44;4.53;;;3.50;;
11699;SDS011;5906;51.660;6.674;2022-07-12T08:36:11;8.53;;;3.50;;
11699;SDS011;5906;51.660;6.674;2022-07-12T08:38:38;4.77;;;3.20;;
11699;SDS011;5906;51.660;6.674;2022-07-12T08:41:07;4.63;;;3.43;;
11699;SDS011;5906;51.660;6.674;2022-07-12T08:43:35;4.40;;;3.50;;
11699;SDS011;5906;51.660;6.674;2022-07-12T08:46:05;5.57;;;3.60;;
11699;SDS011;5906;51.660;6.674;2022-07-12T08:48:34;4.40;;;3.97;;
11699;SDS011;5906;51.660;6.674;2022-07-12T08:51:08;6.23;;;3.70;;
11699;SDS011;5906;51.660;6.674;2022-07-12T08:53:36;5.23;;;3.70;;
11699;SDS011;5906;51.660;6.674;2022-07-12T08:56:04;4.47;;;3.10;;
11699;SDS011;5906;51.660;6.674;2022-07-12T08:58:31;4.27;;;3.90;;
11699;SDS011;5906;51.660;6.674;2022-07-12T09:00:58;7.90;;;4.50;;
11699;SDS011;5906;51.660;6.674;2022-07-12T09:03:27;7.17;;;3.73;;
11699;SDS011;5906;51.660;6.674;2022-07-12T09:05:55;8.20;;;3.67;;
11699;SDS011;5906;51.660;6.674;2022-07-12T09:08:33;6.73;;;3.43;;
11699;SDS011;5906;51.660;6.674;2022-07-12T09:11:00;6.07;;;3.90;;
11699;SDS011;5906;51.660;6.674;2022-07-12T09:13:45;7.00;;;3.47;;
11699;SDS011;5906;51.660;6.674;2022-07-12T09:16:19;8.10;;;3.50;;
11699;SDS011;5906;51.660;6.674;2022-07-12T09:18:47;6.23;;;3.20;;
11699;SDS011;5906;51.660;6.674;2022-07-12T09:21:22;7.63;;;4.30;;
11699;SDS011;5906;51.660;6.674;2022-07-12T09:23:54;7.20;;;3.80;;
11699;SDS011;5906;51.660;6.674;2022-07-12T09:26:22;5.23;;;4.20;;
11699;SDS011;5906;51.660;6.674;2022-07-12T09:28:51;6.07;;;3.23;;
11699;SDS011;5906;51.660;6.674;2022-07-12T09:31:18;7.63;;;4.70;;
11699;SDS011;5906;51.660;6.674;2022-07-12T09:34:01;4.50;;;3.77;;
11699;SDS011;5906;51.660;6.674;2022-07-12T09:36:57;8.00;;;4.10;;
11699;SDS011;5906;51.660;6.674;2022-07-12T09:39:24;4.63;;;3.83;;
11699;SDS011;5906;51.660;6.674;2022-07-12T09:41:52;12.80;;;4.10;;
11699;SDS011;5906;51.660;6.674;2022-07-12T09:44:21;8.10;;;5.17;;
11699;SDS011;5906;51.660;6.674;2022-07-12T09:46:49;6.87;;;4.50;;
11699;SDS011;5906;51.660;6.674;2022-07-12T09:49:17;7.73;;;4.90;;
11699;SDS011;5906;51.660;6.674;2022-07-12T09:51:52;7.17;;;4.70;;
11699;SDS011;5906;51.660;6.674;2022-07-12T09:54:25;5.10;;;4.13;;
11699;SDS011;5906;51.660;6.674;2022-07-12T09:57:01;9.60;;;4.63;;
11699;SDS011;5906;51.660;6.674;2022-07-12T09:59:29;5.33;;;4.20;;
11699;SDS011;5906;51.660;6.674;2022-07-12T10:02:00;6.63;;;4.50;;
11699;SDS011;5906;51.660;6.674;2022-07-12T10:04:30;7.10;;;4.00;;
11699;SDS011;5906;51.660;6.674;2022-07-12T10:06:59;9.63;;;4.07;;
11699;SDS011;5906;51.660;6.674;2022-07-12T10:09:26;5.13;;;3.37;;
11699;SDS011;5906;51.660;6.674;2022-07-12T10:11:53;5.07;;;4.23;;
11699;SDS011;5906;51.660;6.674;2022-07-12T10:14:27;6.03;;;3.37;;
11699;SDS011;5906;51.660;6.674;2022-07-12T10:16:54;5.10;;;3.97;;
11699;SDS011;5906;51.660;6.674;2022-07-12T10:19:23;4.00;;;3.60;;
11699;SDS011;5906;51.660;6.674;2022-07-12T10:21:52;11.53;;;3.87;;
11699;SDS011;5906;51.660;6.674;2022-07-12T10:29:41;3.80;;;3.20;;
11699;SDS011;5906;51.660;6.674;2022-07-12T10:35:05;2.80;;;2.30;;
11699;SDS011;5906;51.660;6.674;2022-07-12T10:37:34;3.37;;;3.07;;
11699;SDS011;5906;51.660;6.674;2022-07-12T10:40:10;4.93;;;2.67;;
11699;SDS011;5906;51.660;6.674;2022-07-12T10:45:30;5.23;;;1.93;;
11699;SDS011;5906;51.660;6.674;2022-07-12T10:48:01;8.35;;;2.88;;
11699;SDS011;5906;51.660;6.674;2022-07-12T10:58:34;1.87;;;1.77;;
11699;SDS011;5906;51.660;6.674;2022-07-12T11:01:08;1.77;;;1.67;;
11699;SDS011;5906;51.660;6.674;2022-07-12T11:03:40;2.10;;;1.90;;
11699;SDS011;5906;51.660;6.674;2022-07-12T11:06:17;3.00;;;1.60;;
11699;SDS011;5906;51.660;6.674;2022-07-12T11:11:23;1.80;;;1.70;;
11699;SDS011;5906;51.660;6.674;2022-07-12T11:13:51;2.13;;;1.90;;
11699;SDS011;5906;51.660;6.674;2022-07-12T11:16:18;4.07;;;1.80;;
11699;SDS011;5906;51.660;6.674;2022-07-12T11:18:45;5.32;;;1.55;;
11699;SDS011;5906;51.660;6.674;2022-07-12T11:21:13;5.18;;;1.50;;
11699;SDS011;5906;51.660;6.674;2022-07-12T11:23:40;9.02;;;1.50;;
11699;SDS011;5906;51.660;6.674;2022-07-12T11:26:07;3.13;;;1.50;;
11699;SDS011;5906;51.660;6.674;2022-07-12T11:28:35;4.50;;;1.70;;
11699;SDS011;5906;51.660;6.674;2022-07-12T11:31:05;1.60;;;1.50;;
11699;SDS011;5906;51.660;6.674;2022-07-12T11:33:35;2.88;;;1.60;;
11699;SDS011;5906;51.660;6.674;2022-07-12T11:36:04;1.85;;;1.75;;
11699;SDS011;5906;51.660;6.674;2022-07-12T11:38:33;2.70;;;1.73;;
11699;SDS011;5906;51.660;6.674;2022-07-12T11:41:09;1.73;;;1.52;;
11699;SDS011;5906;51.660;6.674;2022-07-12T11:43:37;1.70;;;1.60;;
11699;SDS011;5906;51.660;6.674;2022-07-12T11:46:05;4.17;;;1.70;;
11699;SDS011;5906;51.660;6.674;2022-07-12T11:48:34;2.93;;;2.17;;
11699;SDS011;5906;51.660;6.674;2022-07-12T11:51:02;2.10;;;2.00;;
11699;SDS011;5906;51.660;6.674;2022-07-12T11:53:32;4.60;;;2.00;;
11699;SDS011;5906;51.660;6.674;2022-07-12T11:56:00;5.93;;;1.55;;
11699;SDS011;5906;51.660;6.674;2022-07-12T11:58:30;2.25;;;1.50;;
11699;SDS011;5906;51.660;6.674;2022-07-12T12:00:58;1.90;;;1.42;;
11699;SDS011;5906;51.660;6.674;2022-07-12T12:03:25;5.82;;;1.80;;
11699;SDS011;5906;51.660;6.674;2022-07-12T12:05:53;1.60;;;1.50;;
11699;SDS011;5906;51.660;6.674;2022-07-12T12:08:22;2.67;;;1.88;;
11699;SDS011;5906;51.660;6.674;2022-07-12T12:13:24;1.50;;;1.40;;
11699;SDS011;5906;51.660;6.674;2022-07-12T12:15:59;1.80;;;1.60;;
11699;SDS011;5906;51.660;6.674;2022-07-12T12:21:05;1.90;;;1.50;;
11699;SDS011;5906;51.660;6.674;2022-07-12T12:23:34;3.53;;;1.67;;
11699;SDS011;5906;51.660;6.674;2022-07-12T12:26:18;2.13;;;1.30;;
11699;SDS011;5906;51.660;6.674;2022-07-12T12:28:49;1.67;;;1.42;;
11699;SDS011;5906;51.660;6.674;2022-07-12T12:31:19;3.00;;;1.52;;
11699;SDS011;5906;51.660;6.674;2022-07-12T12:39:02;7.20;;;1.60;;
11699;SDS011;5906;51.660;6.674;2022-07-12T12:41:34;2.92;;;1.88;;
11699;SDS011;5906;51.660;6.674;2022-07-12T12:44:05;1.63;;;1.52;;
11699;SDS011;5906;51.660;6.674;2022-07-12T12:46:43;2.63;;;2.03;;
11699;SDS011;5906;51.660;6.674;2022-07-12T12:52:22;2.63;;;1.60;;
11699;SDS011;5906;51.660;6.674;2022-07-12T12:54:53;2.15;;;1.40;;
11699;SDS011;5906;51.660;6.674;2022-07-12T12:57:20;6.03;;;1.95;;
11699;SDS011;5906;51.660;6.674;2022-07-12T12:59:47;2.00;;;1.80;;
11699;SDS011;5906;51.660;6.674;2022-07-12T13:02:14;2.00;;;1.45;;
11699;SDS011;5906;51.660;6.674;2022-07-12T13:04:41;3.95;;;1.98;;
11699;SDS011;5906;51.660;6.674;2022-07-12T13:07:08;3.28;;;1.63;;
11699;SDS011;5906;51.660;6.674;2022-07-12T13:09:39;2.90;;;1.50;;
11699;SDS011;5906;51.660;6.674;2022-07-12T13:12:07;3.67;;;1.50;;
11699;SDS011;5906;51.660;6.674;2022-07-12T13:14:34;1.85;;;1.52;;
11699;SDS011;5906;51.660;6.674;2022-07-12T13:17:01;1.60;;;1.30;;
11699;SDS011;5906;51.660;6.674;2022-07-12T13:19:28;3.13;;;1.60;;
11699;SDS011;5906;51.660;6.674;2022-07-12T13:21:58;4.97;;;1.52;;
11699;SDS011;5906;51.660;6.674;2022-07-12T13:24:25;3.65;;;1.80;;
11699;SDS011;5906;51.660;6.674;2022-07-12T13:26:52;1.40;;;1.30;;
11699;SDS011;5906;51.660;6.674;2022-07-12T13:29:19;1.40;;;1.15;;
11699;SDS011;5906;51.660;6.674;2022-07-12T13:31:46;4.55;;;1.83;;
11699;SDS011;5906;51.660;6.674;2022-07-12T13:34:20;6.05;;;2.13;;
11699;SDS011;5906;51.660;6.674;2022-07-12T13:36:47;2.15;;;1.42;;
11699;SDS011;5906;51.660;6.674;2022-07-12T13:39:14;1.58;;;1.42;;
11699;SDS011;5906;51.660;6.674;2022-07-12T13:41:59;1.70;;;1.60;;
11699;SDS011;5906;51.660;6.674;2022-07-12T13:44:27;4.70;;;1.70;;
11699;SDS011;5906;51.660;6.674;2022-07-12T13:46:54;1.40;;;1.30;;
11699;SDS011;5906;51.660;6.674;2022-07-12T13:49:21;1.83;;;1.45;;
11699;SDS011;5906;51.660;6.674;2022-07-12T13:51:48;3.67;;;1.77;;
11699;SDS011;5906;51.660;6.674;2022-07-12T13:54:15;5.88;;;1.90;;
11699;SDS011;5906;51.660;6.674;2022-07-12T13:56:41;3.70;;;2.05;;
11699;SDS011;5906;51.660;6.674;2022-07-12T13:59:08;6.60;;;1.50;;
11699;SDS011;5906;51.660;6.674;2022-07-12T14:01:35;3.25;;;1.92;;
11699;SDS011;5906;51.660;6.674;2022-07-12T14:04:03;4.10;;;2.03;;
11699;SDS011;5906;51.660;6.674;2022-07-12T14:06:29;3.72;;;1.95;;
11699;SDS011;5906;51.660;6.674;2022-07-12T14:08:57;4.00;;;1.80;;
11699;SDS011;5906;51.660;6.674;2022-07-12T14:11:23;2.13;;;1.77;;
11699;SDS011;5906;51.660;6.674;2022-07-12T14:13:51;2.10;;;1.90;;
11699;SDS011;5906;51.660;6.674;2022-07-12T14:16:18;2.67;;;1.60;;
11699;SDS011;5906;51.660;6.674;2022-07-12T14:18:45;2.67;;;1.60;;
11699;SDS011;5906;51.660;6.674;2022-07-12T14:21:12;4.18;;;2.00;;
11699;SDS011;5906;51.660;6.674;2022-07-12T14:23:39;2.20;;;1.70;;
11699;SDS011;5906;51.660;6.674;2022-07-12T14:26:07;2.42;;;2.13;;
11699;SDS011;5906;51.660;6.674;2022-07-12T14:28:34;2.08;;;1.88;;
11699;SDS011;5906;51.660;6.674;2022-07-12T14:31:02;2.28;;;2.00;;
11699;SDS011;5906;51.660;6.674;2022-07-12T14:33:31;1.90;;;1.80;;
11699;SDS011;5906;51.660;6.674;2022-07-12T14:35:57;2.95;;;1.85;;
11699;SDS011;5906;51.660;6.674;2022-07-12T14:38:24;2.42;;;2.00;;
11699;SDS011;5906;51.660;6.674;2022-07-12T14:40:50;2.20;;;2.00;;
11699;SDS011;5906;51.660;6.674;2022-07-12T14:43:17;3.85;;;2.00;;
11699;SDS011;5906;51.660;6.674;2022-07-12T14:45:46;1.55;;;1.45;;
11699;SDS011;5906;51.660;6.674;2022-07-12T14:48:13;3.30;;;2.33;;
11699;SDS011;5906;51.660;6.674;2022-07-12T14:50:40;3.58;;;1.73;;
11699;SDS011;5906;51.660;6.674;2022-07-12T14:53:07;2.13;;;2.03;;
11699;SDS011;5906;51.660;6.674;2022-07-12T14:55:34;2.55;;;2.03;;
11699;SDS011;5906;51.660;6.674;2022-07-12T14:58:01;3.13;;;2.20;;
11699;SDS011;5906;51.660;6.674;2022-07-12T15:00:28;2.15;;;2.00;;
11699;SDS011;5906;51.660;6.674;2022-07-12T15:02:55;2.20;;;2.00;;
11699;SDS011;5906;51.660;6.674;2022-07-12T15:05:27;8.55;;;2.25;;
11699;SDS011;5906;51.660;6.674;2022-07-12T15:07:54;2.40;;;2.20;;
11699;SDS011;5906;51.660;6.674;2022-07-12T15:10:21;2.40;;;2.20;;
11699;SDS011;5906;51.660;6.674;2022-07-12T15:12:48;2.00;;;1.90;;
11699;SDS011;5906;51.660;6.674;2022-07-12T15:15:17;5.47;;;1.98;;
11699;SDS011;5906;51.660;6.674;2022-07-12T15:17:50;2.33;;;2.03;;
11699;SDS011;5906;51.660;6.674;2022-07-12T15:20:18;2.25;;;2.15;;
11699;SDS011;5906;51.660;6.674;2022-07-12T15:22:45;2.30;;;2.10;;
11699;SDS011;5906;51.660;6.674;2022-07-12T15:25:11;5.72;;;2.30;;
11699;SDS011;5906;51.660;6.674;2022-07-12T15:27:38;2.53;;;2.33;;
11699;SDS011;5906;51.660;6.674;2022-07-12T15:30:05;2.38;;;2.17;;
11699;SDS011;5906;51.660;6.674;2022-07-12T15:32:32;2.67;;;2.08;;
11699;SDS011;5906;51.660;6.674;2022-07-12T15:35:02;2.38;;;2.17;;
11699;SDS011;5906;51.660;6.674;2022-07-12T15:37:30;2.22;;;2.03;;
11699;SDS011;5906;51.660;6.674;2022-07-12T15:39:57;2.65;;;2.40;;
11699;SDS011;5906;51.660;6.674;2022-07-12T15:42:24;3.17;;;2.40;;